createdAt,value
2023-04-12T00:00:28.913Z,7.87
2023-04-12T00:10:29.123Z,7.75
2023-04-12T00:20:29.376Z,7.71
2023-04-12T00:30:29.581Z,7.60
2023-04-12T00:40:29.820Z,7.85
2023-04-12T00:50:30.059Z,8.11
2023-04-12T01:00:30.290Z,8.04
2023-04-12T01:10:30.507Z,7.80
2023-04-12T01:20:30.701Z,7.64
2023-04-12T01:30:30.911Z,7.64
2023-04-12T01:40:31.106Z,7.69
2023-04-12T01:50:31.343Z,7.50
2023-04-12T02:00:31.563Z,7.57
2023-04-12T02:10:31.768Z,7.50
2023-04-12T02:20:32.123Z,7.48
2023-04-12T02:30:32.175Z,7.45
2023-04-12T02:40:32.370Z,7.46
2023-04-12T02:50:32.550Z,7.49
2023-04-12T03:00:32.750Z,7.49
2023-04-12T03:10:32.968Z,7.52
2023-04-12T03:20:33.178Z,7.55
2023-04-12T03:30:33.381Z,7.53
2023-04-12T03:40:33.572Z,7.68
2023-04-12T03:50:33.764Z,7.74
2023-04-12T04:00:33.980Z,7.87
2023-04-12T04:10:34.167Z,7.92
2023-04-12T04:20:34.379Z,7.97
2023-04-12T04:30:34.592Z,7.90
2023-04-12T04:40:34.795Z,7.83
2023-04-12T04:50:35.010Z,7.77
2023-04-12T05:00:35.236Z,7.64
2023-04-12T05:10:35.461Z,7.67
2023-04-12T05:20:35.646Z,7.61
2023-04-12T05:30:35.893Z,7.64
2023-04-12T05:40:36.064Z,7.71
2023-04-12T05:50:36.280Z,7.74
2023-04-12T06:00:36.528Z,7.75
2023-04-12T06:10:36.759Z,7.79
2023-04-12T06:20:36.985Z,7.85
2023-04-12T06:30:37.194Z,7.85
2023-04-12T06:40:37.405Z,7.87
2023-04-12T06:50:37.615Z,7.92
2023-04-12T07:00:37.895Z,7.98
2023-04-12T07:10:38.137Z,8.04
2023-04-12T07:20:38.157Z,8.23
2023-04-12T07:30:38.369Z,8.48
2023-04-12T07:40:38.616Z,8.81
2023-04-12T07:50:38.827Z,9.14
2023-04-12T08:00:39.070Z,9.39
2023-04-12T08:10:39.335Z,9.57
2023-04-12T08:20:39.510Z,10.36
2023-04-12T08:30:39.731Z,11.17
2023-04-12T08:40:39.927Z,11.36
2023-04-12T08:50:40.234Z,11.98
2023-04-12T09:00:40.228Z,12.28
2023-04-12T09:10:40.461Z,12.62
2023-04-12T09:20:40.676Z,13.26
2023-04-12T09:30:40.905Z,14.22
2023-04-12T09:40:41.104Z,14.57
2023-04-12T09:50:41.382Z,14.09
2023-04-12T10:00:41.592Z,14.62
2023-04-12T10:10:41.776Z,14.28
2023-04-12T10:20:42.001Z,14.86
2023-04-12T10:30:42.225Z,14.75
2023-04-12T10:40:42.401Z,14.86
2023-04-12T10:50:42.613Z,15.90
2023-04-12T11:00:42.897Z,15.86
2023-04-12T11:10:42.977Z,16.05
2023-04-12T11:20:43.198Z,16.07
2023-04-12T11:30:43.351Z,16.35
2023-04-12T11:40:43.565Z,17.00
2023-04-12T11:50:43.779Z,16.89
2023-04-12T12:00:43.996Z,16.49
2023-04-12T12:10:59.987Z,16.30
2023-04-12T12:20:45.460Z,16.42
2023-04-12T12:30:44.663Z,16.31
2023-04-12T12:40:44.875Z,16.07
2023-04-12T12:50:45.089Z,15.11
2023-04-12T13:00:45.286Z,14.33
2023-04-12T13:10:45.493Z,14.54
2023-04-12T13:20:45.725Z,14.86
2023-04-12T13:30:45.948Z,14.77
2023-04-12T13:40:46.253Z,14.42
2023-04-12T13:50:47.302Z,14.18
2023-04-12T14:00:46.475Z,13.85
2023-04-12T14:10:46.700Z,14.15
2023-04-12T14:20:46.891Z,14.42
2023-04-12T14:30:47.170Z,14.21
2023-04-12T14:40:47.157Z,14.37
2023-04-12T14:50:47.365Z,14.20
2023-04-12T15:00:48.537Z,14.22
2023-04-12T15:10:47.673Z,14.43
2023-04-12T15:20:47.885Z,14.43
2023-04-12T15:30:48.118Z,14.61
2023-04-12T15:40:48.316Z,14.55
2023-04-12T15:50:48.653Z,14.39
2023-04-12T16:00:48.804Z,14.09
2023-04-12T16:10:48.959Z,13.81
2023-04-12T16:20:49.141Z,13.62
2023-04-12T16:30:49.176Z,13.45
2023-04-12T16:40:49.517Z,13.23
2023-04-12T16:50:49.592Z,13.05
2023-04-12T17:00:50.063Z,12.89
2023-04-12T17:10:50.152Z,12.83
2023-04-12T17:20:50.998Z,12.67
2023-04-12T17:30:50.574Z,12.12
2023-04-12T17:40:50.761Z,11.95
2023-04-12T17:50:50.853Z,11.54
2023-04-12T18:00:51.210Z,11.27
2023-04-12T18:10:51.235Z,11.00
2023-04-12T18:20:52.263Z,11.06
2023-04-12T18:30:51.652Z,10.99
2023-04-12T18:40:55.800Z,10.66
2023-04-12T18:50:52.006Z,10.91
2023-04-12T19:00:52.300Z,10.48
2023-04-12T19:10:52.285Z,10.60
2023-04-12T19:20:52.540Z,10.42
2023-04-12T19:30:52.531Z,10.14
2023-04-12T19:40:52.889Z,9.64
2023-04-12T19:50:52.850Z,10.01
2023-04-12T20:00:57.341Z,9.78
2023-04-12T20:10:52.850Z,9.74
2023-04-12T20:20:53.367Z,9.83
2023-04-12T20:30:53.421Z,9.83
2023-04-12T20:40:53.612Z,10.01
2023-04-12T20:50:53.792Z,9.74
2023-04-12T21:00:53.827Z,9.54
2023-04-12T21:10:53.844Z,9.36
2023-04-12T21:20:54.056Z,9.05
2023-04-12T21:30:54.262Z,8.87
2023-04-12T21:40:54.458Z,8.81
2023-04-12T21:50:54.807Z,8.83
2023-04-12T22:00:54.801Z,8.84
2023-04-12T22:10:55.004Z,8.68
2023-04-12T22:20:55.308Z,8.74
2023-04-12T22:30:55.362Z,8.50
2023-04-12T22:40:55.516Z,7.35
2023-04-12T22:50:55.733Z,6.99
2023-04-12T23:00:55.961Z,7.06
2023-04-12T23:10:56.195Z,7.03
2023-04-12T23:20:56.404Z,6.98
2023-04-12T23:30:56.617Z,7.34
2023-04-12T23:40:56.833Z,7.24
2023-04-12T23:50:57.060Z,7.31
